Time;durP1;ratioP1;P1;durP2;ratioP2;P2;SDS_P1;SDS_P2;PMS_P1;PMS_P2;Temp;Humidity;BMP_temperature;BMP_pressure;BME280_temperature;BME280_humidity;BME280_pressure;Samples;Min_cycle;Max_cycle;Signal;HPM_P1;HPM_P2
2022/05/08 00:02:01;;;;;;;6.83;4.08;;;26.20;99.90;;;;;;1857131;75;21717;-80
2022/05/08 00:04:32;;;;;;;5.60;3.47;;;26.20;99.90;;;;;;1856637;74;21283;-80
2022/05/08 00:07:03;;;;;;;7.17;3.22;;;26.20;99.90;;;;;;1845713;75;21271;-80
2022/05/08 00:09:34;;;;;;;5.17;3.67;;;26.20;99.90;;;;;;1837360;76;21592;-80
2022/05/08 00:12:05;;;;;;;6.72;4.00;;;26.20;99.90;;;;;;1861365;75;21125;-80
2022/05/08 00:14:36;;;;;;;6.00;4.05;;;26.20;99.90;;;;;;1838540;75;21151;-81
2022/05/08 00:17:13;;;;;;;6.60;4.05;;;26.20;99.90;;;;;;1860882;75;21160;-80
2022/05/08 00:19:44;;;;;;;7.65;4.12;;;26.20;99.90;;;;;;1850726;75;21244;-81
2022/05/08 00:22:16;;;;;;;5.42;3.72;;;26.20;99.90;;;;;;1847693;76;21599;-81
2022/05/08 00:24:48;;;;;;;4.72;3.60;;;26.20;99.90;;;;;;1841827;75;21280;-81
2022/05/08 00:27:19;;;;;;;6.45;3.62;;;26.30;99.90;;;;;;1876643;75;21195;-81
2022/05/08 00:29:50;;;;;;;5.90;3.67;;;26.30;99.90;;;;;;1842713;75;21245;-81
2022/05/08 00:32:21;;;;;;;5.53;3.50;;;26.40;99.90;;;;;;1850361;76;21170;-80
2022/05/08 00:34:52;;;;;;;3.62;3.02;;;26.50;99.90;;;;;;1845074;75;21118;-81
2022/05/08 00:37:23;;;;;;;4.62;3.30;;;26.50;99.90;;;;;;1850708;75;21208;-81
2022/05/08 00:39:54;;;;;;;5.70;3.20;;;26.60;99.90;;;;;;1838666;75;21715;-81
2022/05/08 00:42:27;;;;;;;5.17;3.42;;;26.60;99.90;;;;;;1848037;74;21172;-82
2022/05/08 00:44:59;;;;;;;4.80;3.17;;;26.60;99.90;;;;;;1859546;75;21140;-82
2022/05/08 00:47:30;;;;;;;5.42;3.58;;;26.60;99.90;;;;;;1839807;75;21719;-81
2022/05/08 00:50:01;;;;;;;6.53;3.98;;;26.60;99.90;;;;;;1848611;75;21197;-81
2022/05/08 00:52:35;;;;;;;4.87;3.30;;;26.60;99.90;;;;;;1846680;75;21160;-81
2022/05/08 00:55:06;;;;;;;5.70;3.30;;;26.70;99.70;;;;;;1857825;75;21720;-81
2022/05/08 00:57:42;;;;;;;6.12;3.85;;;26.70;99.60;;;;;;1824112;76;21248;-80
2022/05/08 01:00:12;;;;;;;6.12;3.40;;;26.70;99.50;;;;;;1861634;74;21896;-80
2022/05/08 01:02:43;;;;;;;5.72;3.47;;;26.70;99.40;;;;;;1837203;75;21246;-80
2022/05/08 01:05:14;;;;;;;4.90;3.47;;;26.70;99.10;;;;;;1849122;74;21072;-79
2022/05/08 01:07:45;;;;;;;5.03;3.10;;;26.70;99.10;;;;;;1844400;76;21186;-80
2022/05/08 01:10:18;;;;;;;6.30;3.67;;;26.70;99.20;;;;;;1862792;75;21687;-80
2022/05/08 01:12:50;;;;;;;5.12;3.30;;;26.70;99.00;;;;;;1859570;75;21258;-83
2022/05/08 01:15:24;;;;;;;5.80;3.37;;;26.70;98.80;;;;;;1842979;75;21315;-81
2022/05/08 01:17:55;;;;;;;6.25;3.80;;;26.70;98.80;;;;;;1857250;75;21186;-81
2022/05/08 01:20:26;;;;;;;4.85;3.62;;;26.70;98.90;;;;;;1843790;76;21166;-81
2022/05/08 01:22:57;;;;;;;11.80;4.00;;;26.70;99.00;;;;;;1848118;75;21118;-81
2022/05/08 01:25:28;;;;;;;5.42;3.58;;;26.80;99.10;;;;;;1850006;75;21166;-81
2022/05/08 01:27:59;;;;;;;5.90;3.50;;;26.80;98.90;;;;;;1844674;76;21578;-81
2022/05/08 01:30:30;;;;;;;8.30;3.83;;;26.80;98.70;;;;;;1841245;76;21571;-82
2022/05/08 01:33:01;;;;;;;5.92;4.30;;;26.90;98.50;;;;;;1831872;76;21147;-81
2022/05/08 01:35:32;;;;;;;7.15;4.42;;;26.80;98.50;;;;;;1821720;75;21737;-81
2022/05/08 01:38:04;;;;;;;6.90;4.20;;;26.80;98.60;;;;;;1863660;75;21629;-82
2022/05/08 01:40:36;;;;;;;5.25;3.58;;;26.90;98.60;;;;;;1832083;76;21198;-81
2022/05/08 01:43:08;;;;;;;5.50;3.95;;;26.90;98.50;;;;;;1848760;75;21140;-81
2022/05/08 01:45:40;;;;;;;6.95;4.72;;;26.90;98.20;;;;;;1842443;74;21174;-81
2022/05/08 01:50:43;;;;;;;5.30;3.90;;;27.00;98.20;;;;;;1855131;76;21099;-81
2022/05/08 01:53:19;;;;;;;4.72;3.60;;;27.10;98.20;;;;;;1844914;75;21178;-81
2022/05/08 01:55:54;;;;;;;7.10;4.50;;;27.20;97.90;;;;;;1876448;74;21167;-81
2022/05/08 01:58:25;;;;;;;6.00;3.65;;;27.30;97.80;;;;;;1846892;75;21237;-81
2022/05/08 02:00:58;;;;;;;5.67;3.52;;;27.30;97.70;;;;;;1868469;74;21257;-81
2022/05/08 02:03:29;;;;;;;4.40;3.35;;;27.40;97.40;;;;;;1836277;76;21644;-80
2022/05/08 02:06:00;;;;;;;8.60;3.98;;;27.50;97.30;;;;;;1838002;75;21155;-82
2022/05/08 02:08:31;;;;;;;5.37;3.42;;;27.60;97.20;;;;;;1860686;75;21177;-81
2022/05/08 02:11:06;;;;;;;5.47;3.42;;;27.70;97.10;;;;;;1861303;75;21174;-80
2022/05/08 02:13:37;;;;;;;6.12;3.50;;;27.80;97.00;;;;;;1851774;75;21196;-81
2022/05/08 02:16:11;;;;;;;4.83;3.67;;;27.90;96.70;;;;;;1827236;75;21297;-81
2022/05/08 02:18:42;;;;;;;4.35;3.30;;;27.90;96.60;;;;;;1867348;75;21184;-81
2022/05/08 02:21:12;;;;;;;4.67;3.33;;;28.00;96.30;;;;;;1875257;74;21127;-81
2022/05/08 02:23:43;;;;;;;5.72;3.25;;;28.10;96.30;;;;;;1839287;74;21221;-82
2022/05/08 02:26:14;;;;;;;6.30;3.15;;;28.20;96.50;;;;;;1837851;76;21210;-82
2022/05/08 02:28:45;;;;;;;5.08;3.27;;;28.40;95.80;;;;;;1841854;76;21138;-81
2022/05/08 02:31:16;;;;;;;4.78;3.25;;;28.50;95.60;;;;;;1866017;75;21162;-81
2022/05/08 02:33:47;;;;;;;4.03;3.30;;;28.70;95.40;;;;;;1873657;74;21211;-81
2022/05/08 02:36:19;;;;;;;4.58;3.17;;;28.80;95.10;;;;;;1870585;75;21647;-81
2022/05/08 02:38:49;;;;;;;4.50;3.30;;;28.90;94.90;;;;;;1862743;74;21169;-81
2022/05/08 02:41:20;;;;;;;5.05;3.25;;;29.10;94.10;;;;;;1850154;75;21143;-81
2022/05/08 02:43:53;;;;;;;4.40;3.40;;;29.10;94.00;;;;;;1853945;75;21247;-81
2022/05/08 02:46:24;;;;;;;6.03;3.30;;;29.20;94.10;;;;;;1870815;74;21210;-81
2022/05/08 02:48:55;;;;;;;5.10;3.60;;;29.30;94.50;;;;;;1879289;74;21604;-81
2022/05/08 02:51:26;;;;;;;5.33;3.40;;;29.40;93.80;;;;;;1854786;74;21264;-81
2022/05/08 02:53:57;;;;;;;5.87;3.30;;;29.50;93.60;;;;;;1781769;79;21622;-80
2022/05/08 02:59:00;;;;;;;3.95;3.05;;;29.60;93.50;;;;;;1783653;79;21150;-81
2022/05/08 03:01:31;;;;;;;6.28;3.90;;;29.60;93.30;;;;;;1766517;80;21676;-82
2022/05/08 03:04:02;;;;;;;6.95;3.55;;;29.60;93.20;;;;;;1813306;77;21191;-82
2022/05/08 03:06:34;;;;;;;5.28;3.65;;;29.60;93.20;;;;;;1830441;76;21140;-81
2022/05/08 03:09:05;;;;;;;5.50;3.85;;;29.60;93.40;;;;;;1859889;75;21239;-81
2022/05/08 03:11:36;;;;;;;7.53;3.85;;;29.60;93.20;;;;;;1862133;74;21171;-82
2022/05/08 03:14:07;;;;;;;5.92;3.42;;;29.80;93.20;;;;;;1882978;74;21555;-81
2022/05/08 03:16:41;;;;;;;7.97;3.62;;;29.80;92.90;;;;;;1850818;75;21179;-82
2022/05/08 03:19:16;;;;;;;6.08;3.67;;;29.80;93.00;;;;;;1840043;76;21250;-82
2022/05/08 03:21:51;;;;;;;4.12;3.33;;;30.00;92.50;;;;;;1825913;75;21325;-82
2022/05/08 03:24:19;;;;;;;6.08;3.75;;;30.10;92.20;;;;;;1843706;75;21134;-84
2022/05/08 03:26:56;;;;;;;4.70;4.00;;;30.20;92.00;;;;;;1861962;75;21716;-89
2022/05/08 03:29:30;;;;;;;5.78;3.77;;;30.20;91.90;;;;;;1853615;75;21122;-81
2022/05/08 03:32:03;;;;;;;5.08;3.90;;;30.30;91.40;;;;;;1862965;75;21196;-83
2022/05/08 03:34:34;;;;;;;5.97;3.87;;;30.40;91.50;;;;;;1837422;74;23306;-82
2022/05/08 03:37:05;;;;;;;5.58;3.67;;;30.50;91.40;;;;;;1851017;74;21208;-83
2022/05/08 03:39:36;;;;;;;5.40;3.40;;;30.50;91.20;;;;;;1848691;75;21753;-82
2022/05/08 03:42:07;;;;;;;6.72;4.87;;;30.40;90.60;;;;;;1839312;75;21706;-82
2022/05/08 03:44:40;;;;;;;6.03;4.15;;;30.40;90.60;;;;;;1844328;76;21150;-81
2022/05/08 03:47:11;;;;;;;6.97;4.15;;;30.50;91.10;;;;;;1850548;75;21186;-82
2022/05/08 03:49:41;;;;;;;5.30;4.10;;;30.60;90.70;;;;;;1848874;75;21126;-83
2022/05/08 03:52:13;;;;;;;6.20;4.62;;;30.60;90.70;;;;;;1862125;74;21220;-82
2022/05/08 03:54:44;;;;;;;6.25;4.72;;;30.60;90.30;;;;;;1808992;77;21603;-82
2022/05/08 03:57:15;;;;;;;6.17;4.50;;;30.60;90.80;;;;;;1807074;78;21156;-82
2022/05/08 03:59:46;;;;;;;5.78;4.55;;;30.50;90.70;;;;;;1803148;78;21682;-81
2022/05/08 04:02:17;;;;;;;5.80;4.85;;;30.50;90.50;;;;;;1792646;78;21499;-83
2022/05/08 04:04:48;;;;;;;7.22;5.08;;;30.60;90.70;;;;;;1784597;78;21087;-82
2022/05/08 04:07:19;;;;;;;6.80;5.00;;;30.60;90.90;;;;;;1800046;78;21529;-81
2022/05/08 04:09:50;;;;;;;6.55;5.37;;;30.60;90.70;;;;;;1793937;78;21690;-84
2022/05/08 04:12:21;;;;;;;7.00;5.15;;;30.60;90.70;;;;;;1851487;75;21206;-82
2022/05/08 04:14:52;;;;;;;6.78;4.60;;;30.60;90.70;;;;;;1852459;75;21146;-83
2022/05/08 04:17:28;;;;;;;6.28;5.17;;;30.70;90.50;;;;;;1808314;77;21629;-81
2022/05/08 04:19:59;;;;;;;6.08;5.10;;;30.80;90.40;;;;;;1791014;78;21228;-82
2022/05/08 04:25:03;;;;;;;8.13;5.50;;;30.90;89.90;;;;;;1786122;78;21119;-80
2022/05/08 04:27:38;;;;;;;9.73;5.87;;;30.90;90.00;;;;;;1787568;79;21703;-82
2022/05/08 04:30:08;;;;;;;8.23;5.97;;;30.90;89.70;;;;;;1776448;79;21279;-82
2022/05/08 04:32:38;;;;;;;8.60;6.05;;;30.90;89.10;;;;;;1841180;76;21111;-81
2022/05/08 04:35:10;;;;;;;11.15;6.42;;;30.90;89.20;;;;;;1829488;75;21128;-81
2022/05/08 04:37:40;;;;;;;7.35;5.90;;;30.90;89.70;;;;;;1794045;78;21178;-82
2022/05/08 04:40:13;;;;;;;9.25;6.40;;;30.90;90.00;;;;;;1805917;78;21190;-80
2022/05/08 04:42:44;;;;;;;9.00;6.65;;;31.00;90.30;;;;;;1806924;77;21103;-80
2022/05/08 04:45:15;;;;;;;9.43;6.62;;;31.00;89.80;;;;;;1780718;79;21221;-81
2022/05/08 04:47:46;;;;;;;9.73;6.70;;;31.00;89.90;;;;;;1818251;77;22004;-82
2022/05/08 04:50:17;;;;;;;9.05;6.12;;;30.90;89.60;;;;;;1854182;75;21163;-82
2022/05/08 04:52:49;;;;;;;7.60;5.85;;;30.90;89.60;;;;;;1855968;75;21224;-82
2022/05/08 04:55:21;;;;;;;8.85;6.78;;;30.90;89.60;;;;;;1820324;77;21630;-82
2022/05/08 04:57:52;;;;;;;7.17;5.35;;;30.90;89.50;;;;;;1776806;79;21149;-81
2022/05/08 05:00:23;;;;;;;10.18;5.85;;;30.90;89.00;;;;;;1780023;79;21163;-80
2022/05/08 05:02:54;;;;;;;7.33;5.70;;;30.90;89.30;;;;;;1831485;76;21229;-81
2022/05/08 05:05:25;;;;;;;9.53;6.08;;;30.90;89.70;;;;;;1851938;75;21188;-82
2022/05/08 05:08:04;;;;;;;8.98;5.97;;;30.90;89.40;;;;;;1857253;75;21229;-82
2022/05/08 05:10:35;;;;;;;9.58;6.70;;;30.80;89.10;;;;;;1857314;75;21616;-82
2022/05/08 05:13:06;;;;;;;8.38;6.17;;;30.70;89.70;;;;;;1857132;75;21108;-81
2022/05/08 05:15:37;;;;;;;8.23;6.33;;;30.70;90.00;;;;;;1837210;75;21463;-83
2022/05/08 05:18:08;;;;;;;11.15;7.00;;;30.60;90.10;;;;;;1847982;76;21096;-82
2022/05/08 05:20:40;;;;;;;10.30;6.75;;;30.70;90.10;;;;;;1854732;75;21140;-82
2022/05/08 05:23:10;;;;;;;14.73;6.67;;;30.80;90.10;;;;;;1864961;75;21147;-82
2022/05/08 05:25:42;;;;;;;9.03;6.92;;;30.90;89.60;;;;;;1866952;75;21236;-82
2022/05/08 05:28:13;;;;;;;8.88;6.90;;;31.00;89.50;;;;;;1827798;74;21146;-82
2022/05/08 05:30:44;;;;;;;9.33;7.45;;;31.00;89.50;;;;;;1847743;75;21168;-82
2022/05/08 05:33:18;;;;;;;10.05;7.28;;;31.10;88.10;;;;;;1854694;75;21143;-82
2022/05/08 05:35:47;;;;;;;10.85;7.47;;;31.20;88.10;;;;;;1844893;75;21718;-82
2022/05/08 05:38:18;;;;;;;10.80;7.50;;;31.30;87.40;;;;;;1846941;75;21065;-82
2022/05/08 05:40:49;;;;;;;10.82;7.67;;;31.40;87.00;;;;;;1813867;77;21107;-83
2022/05/08 05:43:20;;;;;;;11.33;7.17;;;31.60;87.10;;;;;;1779235;78;21213;-81
2022/05/08 05:48:25;;;;;;;11.45;8.08;;;31.80;85.00;;;;;;1844939;76;21178;-82
2022/05/08 05:50:56;;;;;;;10.63;8.10;;;31.80;85.30;;;;;;1853392;75;21644;-82
2022/05/08 05:53:27;;;;;;;10.40;7.60;;;31.80;85.30;;;;;;1859869;74;21425;-82
2022/05/08 05:55:59;;;;;;;9.80;7.28;;;31.70;84.60;;;;;;1849106;74;21194;-81
2022/05/08 05:58:31;;;;;;;7.83;7.00;;;31.60;84.90;;;;;;1837980;75;21292;-82
2022/05/08 06:01:01;;;;;;;9.03;7.65;;;31.50;85.20;;;;;;1849017;75;21693;-83
2022/05/08 06:03:34;;;;;;;11.03;7.78;;;31.50;84.40;;;;;;1855428;75;21190;-81
2022/05/08 06:06:04;;;;;;;13.30;9.88;;;31.50;84.60;;;;;;1853521;75;21197;-80
2022/05/08 06:08:37;;;;;;;12.33;8.55;;;31.50;85.70;;;;;;1850315;75;21225;-81
2022/05/08 06:11:08;;;;;;;13.08;8.78;;;31.50;85.90;;;;;;1867076;74;21224;-81
2022/05/08 06:13:39;;;;;;;10.93;9.23;;;31.50;85.70;;;;;;1863862;75;21611;-80
2022/05/08 06:16:10;;;;;;;8.83;7.62;;;31.60;85.80;;;;;;1858345;74;21215;-81
2022/05/08 06:18:41;;;;;;;10.80;8.55;;;31.50;85.60;;;;;;1871823;75;21124;-81
2022/05/08 06:21:12;;;;;;;9.38;8.40;;;31.60;85.40;;;;;;1882530;75;21152;-81
2022/05/08 06:23:43;;;;;;;12.05;8.85;;;31.60;85.20;;;;;;1862776;75;21232;-81
2022/05/08 06:26:15;;;;;;;9.75;8.40;;;31.60;85.00;;;;;;1854046;75;21111;-81
2022/05/08 06:28:47;;;;;;;9.53;8.20;;;31.60;84.90;;;;;;1842359;75;21636;-81
2022/05/08 06:31:18;;;;;;;10.18;7.40;;;31.60;83.80;;;;;;1857281;74;21153;-81
2022/05/08 06:33:49;;;;;;;9.08;7.33;;;31.60;83.50;;;;;;1856579;74;21178;-81
2022/05/08 06:36:20;;;;;;;9.85;7.58;;;31.70;83.40;;;;;;1870474;75;21120;-81
2022/05/08 06:38:51;;;;;;;10.03;7.12;;;31.70;83.70;;;;;;1846376;75;21123;-80
2022/05/08 06:41:23;;;;;;;8.95;7.20;;;31.80;83.60;;;;;;1861909;74;21153;-83
2022/05/08 06:43:55;;;;;;;8.83;6.85;;;31.80;83.70;;;;;;1866555;75;21156;-82
2022/05/08 06:46:25;;;;;;;10.13;7.60;;;31.80;82.80;;;;;;1848274;75;21106;-82
2022/05/08 06:48:56;;;;;;;8.70;7.60;;;31.80;82.80;;;;;;1875888;74;21613;-82
2022/05/08 06:51:28;;;;;;;8.88;7.60;;;31.80;83.20;;;;;;1883737;74;21349;-82
2022/05/08 06:53:59;;;;;;;10.78;7.65;;;31.80;83.00;;;;;;1872110;75;21167;-81
2022/05/08 06:56:34;;;;;;;7.72;6.58;;;31.90;82.80;;;;;;1866714;75;21248;-82
2022/05/08 07:01:42;;;;;;;8.90;8.00;;;32.00;83.10;;;;;;1883793;74;21119;-80
2022/05/08 07:04:11;;;;;;;10.95;9.13;;;32.00;83.80;;;;;;1865954;74;21242;-80
2022/05/08 07:06:42;;;;;;;10.30;8.38;;;32.10;84.60;;;;;;1846901;74;21597;-80
2022/05/08 07:09:14;;;;;;;12.05;8.40;;;32.00;84.40;;;;;;1870325;75;21262;-81
2022/05/08 07:11:47;;;;;;;11.75;9.10;;;32.00;84.80;;;;;;1862290;75;21173;-80
2022/05/08 07:14:52;;;;;;;12.40;8.40;;;32.00;84.50;;;;;;1876154;74;21251;-80
2022/05/08 07:17:24;;;;;;;11.75;9.43;;;32.10;84.90;;;;;;1873633;74;21163;-80
2022/05/08 07:19:56;;;;;;;10.60;8.30;;;32.00;85.30;;;;;;1853538;75;21143;-80
2022/05/08 07:22:27;;;;;;;12.35;9.38;;;31.90;83.10;;;;;;1859489;75;21544;-79
2022/05/08 07:24:58;;;;;;;10.53;8.70;;;31.90;84.30;;;;;;1865721;74;21189;-80
2022/05/08 07:27:30;;;;;;;12.95;9.68;;;32.00;84.20;;;;;;1859189;74;21422;-82
2022/05/08 07:30:04;;;;;;;12.93;11.33;;;32.00;84.90;;;;;;1860887;75;21198;-82
2022/05/08 07:32:37;;;;;;;12.75;10.95;;;32.00;84.20;;;;;;1857764;74;21155;-81
2022/05/08 07:37:43;;;;;;;12.05;10.43;;;31.90;84.80;;;;;;1835825;75;21259;-82
2022/05/08 07:40:15;;;;;;;13.43;10.10;;;31.80;84.30;;;;;;1868149;75;21079;-80
2022/05/08 07:42:46;;;;;;;12.65;9.90;;;31.70;84.30;;;;;;1849727;76;21142;-80
2022/05/08 07:45:17;;;;;;;12.35;9.23;;;31.60;83.50;;;;;;1864858;75;21203;-80
2022/05/08 07:47:48;;;;;;;12.15;9.23;;;31.60;83.90;;;;;;1850644;75;21693;-80
2022/05/08 07:50:19;;;;;;;10.93;9.00;;;31.60;83.60;;;;;;1864100;75;21642;-80
2022/05/08 07:52:51;;;;;;;12.23;9.65;;;31.70;83.80;;;;;;1854101;75;21244;-80
2022/05/08 07:55:22;;;;;;;11.85;9.85;;;31.70;83.70;;;;;;1884507;75;21176;-80
2022/05/08 07:57:53;;;;;;;12.20;9.08;;;31.90;83.20;;;;;;1781298;79;21163;-79
2022/05/08 08:00:24;;;;;;;14.28;9.23;;;32.00;82.00;;;;;;1787034;79;21138;-81
2022/05/08 08:02:55;;;;;;;11.78;10.28;;;32.10;81.10;;;;;;1842975;76;21178;-79
2022/05/08 08:05:27;;;;;;;11.53;9.73;;;32.10;82.20;;;;;;1863341;75;21715;-81
2022/05/08 08:07:57;;;;;;;11.70;9.45;;;32.10;81.90;;;;;;1850380;75;21695;-80
2022/05/08 08:10:32;;;;;;;12.55;8.88;;;32.10;82.10;;;;;;1848403;75;21179;-80
2022/05/08 08:13:01;;;;;;;14.98;10.18;;;32.10;82.40;;;;;;1858469;75;21082;-80
2022/05/08 08:15:33;;;;;;;12.25;10.55;;;32.10;82.50;;;;;;1873120;75;21210;-82
2022/05/08 08:18:05;;;;;;;13.80;10.93;;;32.00;82.00;;;;;;1870558;75;21262;-80
2022/05/08 08:20:36;;;;;;;12.25;10.20;;;32.00;82.30;;;;;;1789538;79;21169;-80
2022/05/08 08:23:07;;;;;;;11.83;10.63;;;32.00;82.60;;;;;;1796511;77;21193;-81
2022/05/08 08:25:39;;;;;;;14.03;10.63;;;31.90;82.90;;;;;;1806969;78;21494;-79
2022/05/08 08:28:13;;;;;;;13.72;10.15;;;31.80;83.40;;;;;;1858746;75;21220;-80
2022/05/08 08:30:44;;;;;;;13.05;11.33;;;31.80;83.50;;;;;;1867585;75;21232;-80
2022/05/08 08:33:15;;;;;;;12.23;10.95;;;31.80;83.70;;;;;;1786437;79;21259;-81
2022/05/08 08:35:46;;;;;;;12.35;10.98;;;31.80;84.00;;;;;;1843492;76;21088;-79
2022/05/08 08:38:17;;;;;;;13.22;10.75;;;31.80;83.70;;;;;;1841132;76;21147;-80
2022/05/08 08:40:50;;;;;;;11.00;9.68;;;31.90;82.70;;;;;;1846074;75;21606;-80
2022/05/08 08:43:23;;;;;;;12.43;10.28;;;32.00;80.00;;;;;;1865741;75;21255;-80
2022/05/08 08:48:28;;;;;;;14.63;11.88;;;32.00;81.20;;;;;;1867406;75;21191;-81
2022/05/08 08:51:02;;;;;;;14.75;10.98;;;31.90;81.40;;;;;;1877219;75;22409;-80
2022/05/08 08:53:33;;;;;;;12.05;9.38;;;31.80;81.60;;;;;;1861367;74;21427;-81
2022/05/08 08:56:04;;;;;;;15.15;9.55;;;31.80;82.50;;;;;;1853240;74;21152;-80
2022/05/08 08:58:35;;;;;;;11.48;9.48;;;31.80;82.90;;;;;;1869454;74;21187;-82
2022/05/08 09:01:06;;;;;;;11.78;9.50;;;31.70;83.00;;;;;;1875395;75;21184;-80
2022/05/08 09:03:37;;;;;;;11.80;9.58;;;31.70;83.20;;;;;;1863908;75;21100;-80
2022/05/08 09:06:09;;;;;;;13.20;9.85;;;31.60;83.00;;;;;;1845878;74;21159;-82
2022/05/08 09:08:40;;;;;;;12.23;9.38;;;31.60;83.60;;;;;;1869077;75;21195;-81
2022/05/08 09:11:13;;;;;;;10.98;9.30;;;31.50;83.90;;;;;;1868049;75;21212;-81
2022/05/08 09:13:47;;;;;;;12.85;9.60;;;31.50;84.10;;;;;;1850907;76;21269;-81
2022/05/08 09:16:18;;;;;;;11.85;9.73;;;31.50;83.80;;;;;;1858048;75;21151;-80
2022/05/08 09:18:49;;;;;;;11.93;9.28;;;31.50;84.20;;;;;;1848015;75;21575;-80
2022/05/08 09:23:57;;;;;;;10.80;9.40;;;31.50;84.10;;;;;;1854844;74;21586;-81
2022/05/08 09:26:29;;;;;;;11.90;8.45;;;31.50;84.20;;;;;;1870268;76;21066;-80
2022/05/08 09:29:00;;;;;;;9.68;7.92;;;31.50;84.20;;;;;;1857816;75;21225;-81
2022/05/08 09:31:33;;;;;;;13.45;8.68;;;31.50;84.10;;;;;;1869763;76;21189;-80
2022/05/08 09:34:11;;;;;;;10.80;9.03;;;31.50;84.10;;;;;;1865607;75;21807;-79
2022/05/08 09:36:42;;;;;;;12.75;9.40;;;31.40;85.00;;;;;;1867330;75;21207;-79
2022/05/08 09:39:14;;;;;;;11.60;9.53;;;31.40;84.10;;;;;;1866374;76;21175;-81
2022/05/08 09:41:47;;;;;;;9.73;8.78;;;31.40;84.10;;;;;;1867125;76;21153;-81
2022/05/08 09:44:18;;;;;;;11.75;8.78;;;31.40;84.30;;;;;;1846305;76;21155;-79
2022/05/08 09:46:51;;;;;;;14.80;9.43;;;31.30;84.40;;;;;;1851474;75;21092;-80
2022/05/08 09:49:24;;;;;;;9.73;8.73;;;31.30;84.70;;;;;;1847597;74;21591;-80
2022/05/08 09:51:56;;;;;;;8.88;7.47;;;31.30;85.00;;;;;;1877893;76;21085;-79
2022/05/08 09:54:29;;;;;;;12.70;8.63;;;31.30;86.00;;;;;;1856370;75;21252;-80
2022/05/08 09:57:01;;;;;;;9.40;7.78;;;31.30;86.00;;;;;;1858804;76;21653;-80
2022/05/08 09:59:33;;;;;;;10.65;8.18;;;31.20;85.30;;;;;;1862091;76;21100;-80
2022/05/08 10:02:05;;;;;;;10.28;8.30;;;31.20;85.00;;;;;;1862153;76;21221;-81
2022/05/08 10:04:37;;;;;;;11.05;8.25;;;31.20;84.70;;;;;;1838241;77;21617;-80
2022/05/08 10:07:08;;;;;;;8.70;7.80;;;31.20;84.90;;;;;;1846107;76;21227;-81
2022/05/08 10:14:49;;;;;;;11.78;8.83;;;31.10;85.30;;;;;;1863611;75;21147;-79
2022/05/08 10:17:22;;;;;;;11.28;8.78;;;31.10;85.60;;;;;;1832104;75;21107;-81
2022/05/08 10:19:53;;;;;;;10.60;8.85;;;31.10;85.80;;;;;;1828488;76;21238;-80
2022/05/08 10:22:25;;;;;;;10.13;8.40;;;31.10;85.60;;;;;;1811946;76;21701;-80
2022/05/08 10:24:58;;;;;;;10.48;8.83;;;31.10;85.80;;;;;;1811099;76;21165;-82
2022/05/08 10:27:29;;;;;;;10.88;8.93;;;31.10;85.90;;;;;;1844098;75;21146;-80
2022/05/08 10:30:01;;;;;;;11.25;8.85;;;31.00;86.00;;;;;;1834107;77;21673;-80
2022/05/08 10:32:35;;;;;;;10.43;7.97;;;31.00;86.90;;;;;;1810146;77;21255;-80
2022/05/08 10:35:09;;;;;;;10.38;8.55;;;31.10;86.10;;;;;;1813526;77;21185;-79
2022/05/08 10:37:41;;;;;;;12.00;8.95;;;31.00;86.20;;;;;;1811994;77;21162;-81
2022/05/08 10:40:15;;;;;;;13.20;9.13;;;31.00;86.30;;;;;;1822969;78;21219;-80
2022/05/08 10:42:46;;;;;;;10.95;8.60;;;31.00;86.50;;;;;;1811860;76;21154;-80
2022/05/08 10:45:19;;;;;;;9.73;8.45;;;31.00;86.40;;;;;;1834536;77;21116;-80
2022/05/08 10:47:50;;;;;;;12.25;8.38;;;31.00;86.70;;;;;;1826601;76;21108;-80
2022/05/08 10:50:21;;;;;;;13.00;9.13;;;31.00;86.60;;;;;;1818514;76;21260;-80
2022/05/08 10:52:52;;;;;;;9.40;8.35;;;31.00;86.70;;;;;;1817964;76;21133;-80
2022/05/08 10:55:24;;;;;;;12.23;8.98;;;31.00;86.90;;;;;;1825355;76;21244;-80
2022/05/08 10:57:56;;;;;;;12.03;8.75;;;30.90;86.80;;;;;;1841550;77;21102;-79
2022/05/08 11:00:29;;;;;;;13.05;8.75;;;31.00;87.00;;;;;;1847335;76;21302;-81
2022/05/08 11:03:02;;;;;;;11.88;9.00;;;31.00;87.30;;;;;;1834618;76;21198;-81
2022/05/08 11:05:35;;;;;;;9.55;8.23;;;31.00;87.30;;;;;;1835732;75;21245;-81
2022/05/08 11:08:10;;;;;;;12.13;9.68;;;30.90;87.40;;;;;;1864334;76;21158;-80
2022/05/08 11:10:42;;;;;;;13.90;9.50;;;30.90;87.50;;;;;;1844055;74;21160;-80
2022/05/08 11:13:14;;;;;;;11.25;9.73;;;30.90;87.80;;;;;;1849033;77;21785;-81
2022/05/08 11:15:46;;;;;;;15.38;10.53;;;30.80;87.80;;;;;;1845885;75;21182;-81
2022/05/08 11:18:18;;;;;;;15.00;10.58;;;30.80;88.20;;;;;;1826666;76;21164;-81
2022/05/08 11:20:53;;;;;;;14.23;9.63;;;30.80;89.50;;;;;;1814915;75;21181;-81
2022/05/08 11:23:30;;;;;;;15.08;8.60;;;30.80;88.60;;;;;;1843127;77;21178;-81
2022/05/08 11:26:05;;;;;;;10.18;8.08;;;30.70;88.80;;;;;;1846394;78;21069;-81
2022/05/08 11:28:39;;;;;;;11.15;8.00;;;30.70;89.00;;;;;;1829904;77;21189;-81
2022/05/08 11:31:12;;;;;;;13.38;10.82;;;30.70;90.00;;;;;;1821022;78;21272;-81
2022/05/08 11:36:17;;;;;;;12.47;9.00;;;30.70;89.50;;;;;;1842712;78;21166;-81
2022/05/08 11:38:52;;;;;;;11.28;8.80;;;30.70;89.70;;;;;;1843139;78;21052;-81
2022/05/08 11:41:24;;;;;;;10.03;8.78;;;30.70;89.80;;;;;;1870840;75;21100;-80
2022/05/08 11:43:57;;;;;;;12.50;8.95;;;30.60;89.80;;;;;;1874008;75;21143;-80
2022/05/08 11:46:32;;;;;;;10.98;9.13;;;30.60;89.70;;;;;;1874922;75;21143;-80
2022/05/08 11:49:04;;;;;;;12.50;9.70;;;30.60;89.80;;;;;;1848388;75;21167;-80
2022/05/08 11:51:38;;;;;;;13.32;9.45;;;30.60;89.80;;;;;;1848912;75;21188;-81
2022/05/08 11:54:11;;;;;;;13.55;9.60;;;30.60;90.00;;;;;;1794384;78;21179;-81
2022/05/08 11:56:43;;;;;;;14.10;10.50;;;30.60;90.10;;;;;;1841902;76;21154;-80
2022/05/08 11:59:17;;;;;;;13.08;10.63;;;30.60;90.00;;;;;;1864257;74;21163;-80
2022/05/08 12:01:50;;;;;;;14.75;10.68;;;30.60;90.00;;;;;;1842102;75;21194;-81
2022/05/08 12:04:24;;;;;;;16.25;10.48;;;30.50;90.00;;;;;;1836741;76;21724;-81
2022/05/08 12:06:59;;;;;;;15.08;9.35;;;30.60;90.10;;;;;;1784294;78;21138;-80
2022/05/08 12:09:32;;;;;;;15.25;10.90;;;30.50;90.20;;;;;;1797741;79;21091;-80
2022/05/08 12:12:05;;;;;;;11.88;10.23;;;30.50;90.50;;;;;;1832795;76;21096;-80
2022/05/08 12:14:39;;;;;;;13.45;10.40;;;30.50;90.90;;;;;;1860373;75;21175;-80
2022/05/08 12:17:08;;;;;;;11.35;8.65;;;30.40;90.90;;;;;;1862722;75;21173;-79
2022/05/08 12:19:43;;;;;;;9.88;7.53;;;30.30;91.00;;;;;;1834614;75;21345;-82
2022/05/08 12:22:17;;;;;;;12.20;7.80;;;30.30;90.90;;;;;;1833469;75;21160;-79
2022/05/08 12:24:48;;;;;;;14.35;7.60;;;30.20;91.00;;;;;;1828792;75;21574;-80
2022/05/08 12:27:20;;;;;;;9.93;7.20;;;30.20;91.10;;;;;;1827010;75;21119;-79
2022/05/08 12:29:53;;;;;;;11.05;7.03;;;30.10;91.20;;;;;;1845069;75;21107;-80
2022/05/08 12:32:30;;;;;;;10.88;6.92;;;30.10;91.30;;;;;;1867843;75;21601;-80
2022/05/08 12:34:57;;;;;;;9.40;6.92;;;30.10;91.40;;;;;;1845455;75;21269;-81
2022/05/08 12:37:29;;;;;;;8.15;6.55;;;30.10;91.40;;;;;;1870417;74;21105;-81
2022/05/08 12:40:00;;;;;;;8.95;6.10;;;30.00;91.40;;;;;;1835789;75;21108;-79
2022/05/08 12:43:03;;;;;;;7.67;6.20;;;30.00;91.30;;;;;;1841304;75;21221;-81
2022/05/08 12:45:07;;;;;;;7.37;5.65;;;29.90;91.30;;;;;;1848730;75;21234;-79
2022/05/08 12:47:38;;;;;;;7.95;5.72;;;29.90;91.30;;;;;;1858054;75;21724;-80
2022/05/08 12:50:10;;;;;;;7.50;5.95;;;29.90;91.30;;;;;;1824998;76;21107;-82
2022/05/08 12:52:47;;;;;;;9.10;5.75;;;29.80;91.30;;;;;;1830217;76;21694;-83
2022/05/08 12:55:18;;;;;;;7.62;6.17;;;29.80;91.30;;;;;;1855165;76;21213;-81
2022/05/08 13:00:21;;;;;;;8.85;6.05;;;29.70;91.50;;;;;;1859841;75;21149;-82
2022/05/08 13:02:52;;;;;;;8.65;6.28;;;29.70;91.50;;;;;;1858314;75;21229;-79
2022/05/08 13:05:23;;;;;;;7.05;5.72;;;29.70;91.50;;;;;;1846248;75;21263;-81
2022/05/08 13:07:54;;;;;;;8.20;6.15;;;29.70;91.40;;;;;;1862380;74;22038;-80
2022/05/08 13:10:25;;;;;;;8.85;5.75;;;29.70;91.50;;;;;;1854325;75;21789;-81
2022/05/08 13:12:57;;;;;;;9.70;5.90;;;29.70;91.50;;;;;;1848598;75;21145;-80
2022/05/08 13:15:34;;;;;;;7.35;6.00;;;29.70;91.60;;;;;;1862635;75;21274;-80
2022/05/08 13:18:05;;;;;;;9.00;6.08;;;29.70;91.50;;;;;;1783576;78;21123;-80
2022/05/08 13:20:38;;;;;;;9.48;6.60;;;29.60;91.50;;;;;;1819900;78;21711;-81
2022/05/08 13:23:09;;;;;;;8.48;5.65;;;29.60;91.60;;;;;;1814692;78;21287;-80
2022/05/08 13:25:39;;;;;;;8.90;5.72;;;29.60;91.60;;;;;;1846423;75;21248;-80
2022/05/08 13:28:11;;;;;;;8.60;5.92;;;29.60;91.70;;;;;;1848617;75;21201;-80
2022/05/08 13:30:42;;;;;;;6.30;5.12;;;29.60;91.60;;;;;;1852741;75;21206;-81
2022/05/08 13:33:15;;;;;;;7.37;5.87;;;29.60;91.60;;;;;;1851534;74;21155;-81
2022/05/08 13:35:47;;;;;;;13.35;6.15;;;29.60;91.60;;;;;;1881026;75;21249;-80